sensor_id;sensor_type;location;lat;lon;timestamp;temperature;humidity
51841;DHT22;37888;53.246;6.658;2024-02-14T00:02:08;6.30;99.90
51841;DHT22;37888;53.246;6.658;2024-02-14T00:04:33;6.40;99.90
51841;DHT22;37888;53.246;6.658;2024-02-14T00:06:59;6.20;99.90
51841;DHT22;37888;53.246;6.658;2024-02-14T00:09:25;6.40;99.90
51841;DHT22;37888;53.246;6.658;2024-02-14T00:11:51;6.40;99.90
51841;DHT22;37888;53.246;6.658;2024-02-14T00:14:17;6.20;99.90
51841;DHT22;37888;53.246;6.658;2024-02-14T00:16:44;6.20;99.90
51841;DHT22;37888;53.246;6.658;2024-02-14T00:19:10;6.20;99.90
51841;DHT22;37888;53.246;6.658;2024-02-14T00:21:36;6.20;99.90
51841;DHT22;37888;53.246;6.658;2024-02-14T00:24:03;6.20;99.90
51841;DHT22;37888;53.246;6.658;2024-02-14T00:26:30;6.20;99.90
51841;DHT22;37888;53.246;6.658;2024-02-14T00:28:55;6.30;99.90
51841;DHT22;37888;53.246;6.658;2024-02-14T00:31:21;6.20;99.90
51841;DHT22;37888;53.246;6.658;2024-02-14T00:33:47;6.30;99.90
51841;DHT22;37888;53.246;6.658;2024-02-14T00:36:12;6.20;99.90
51841;DHT22;37888;53.246;6.658;2024-02-14T00:38:38;6.50;99.90
51841;DHT22;37888;53.246;6.658;2024-02-14T00:41:04;6.50;99.90
51841;DHT22;37888;53.246;6.658;2024-02-14T00:43:29;6.50;99.90
51841;DHT22;37888;53.246;6.658;2024-02-14T00:45:56;6.20;99.90
51841;DHT22;37888;53.246;6.658;2024-02-14T00:48:22;6.50;99.90
51841;DHT22;37888;53.246;6.658;2024-02-14T00:50:48;6.40;99.90
51841;DHT22;37888;53.246;6.658;2024-02-14T00:53:14;6.20;99.90
51841;DHT22;37888;53.246;6.658;2024-02-14T00:55:39;6.20;99.90
51841;DHT22;37888;53.246;6.658;2024-02-14T00:58:05;6.50;99.90
51841;DHT22;37888;53.246;6.658;2024-02-14T01:00:30;6.30;99.90
51841;DHT22;37888;53.246;6.658;2024-02-14T01:02:57;6.50;99.90
51841;DHT22;37888;53.246;6.658;2024-02-14T01:05:23;6.60;99.90
51841;DHT22;37888;53.246;6.658;2024-02-14T01:07:49;6.50;99.90
51841;DHT22;37888;53.246;6.658;2024-02-14T01:10:14;6.40;99.90
51841;DHT22;37888;53.246;6.658;2024-02-14T01:12:40;6.60;99.90
51841;DHT22;37888;53.246;6.658;2024-02-14T01:15:06;6.60;99.90
51841;DHT22;37888;53.246;6.658;2024-02-14T01:17:31;6.60;99.90
51841;DHT22;37888;53.246;6.658;2024-02-14T01:19:57;6.20;99.90
51841;DHT22;37888;53.246;6.658;2024-02-14T01:22:23;6.70;99.90
51841;DHT22;37888;53.246;6.658;2024-02-14T01:24:50;6.30;99.90
51841;DHT22;37888;53.246;6.658;2024-02-14T01:27:16;6.60;99.90
51841;DHT22;37888;53.246;6.658;2024-02-14T01:29:42;6.30;99.90
51841;DHT22;37888;53.246;6.658;2024-02-14T01:32:08;6.50;99.90
51841;DHT22;37888;53.246;6.658;2024-02-14T01:34:35;6.70;99.90
51841;DHT22;37888;53.246;6.658;2024-02-14T01:37:00;6.30;99.90
51841;DHT22;37888;53.246;6.658;2024-02-14T01:39:26;6.70;99.90
51841;DHT22;37888;53.246;6.658;2024-02-14T01:41:51;6.70;99.90
51841;DHT22;37888;53.246;6.658;2024-02-14T01:44:17;6.80;99.90
51841;DHT22;37888;53.246;6.658;2024-02-14T01:46:44;6.70;99.90
51841;DHT22;37888;53.246;6.658;2024-02-14T01:49:12;6.80;99.90
51841;DHT22;37888;53.246;6.658;2024-02-14T01:51:39;6.40;99.90
51841;DHT22;37888;53.246;6.658;2024-02-14T01:54:07;6.40;99.90
51841;DHT22;37888;53.246;6.658;2024-02-14T01:56:32;6.70;99.90
51841;DHT22;37888;53.246;6.658;2024-02-14T01:58:58;6.40;99.90
51841;DHT22;37888;53.246;6.658;2024-02-14T02:01:24;6.70;99.90
51841;DHT22;37888;53.246;6.658;2024-02-14T02:03:50;6.80;99.90
51841;DHT22;37888;53.246;6.658;2024-02-14T02:06:17;6.60;99.90
51841;DHT22;37888;53.246;6.658;2024-02-14T02:08:43;6.50;99.90
51841;DHT22;37888;53.246;6.658;2024-02-14T02:11:09;6.50;99.90
51841;DHT22;37888;53.246;6.658;2024-02-14T02:13:35;6.80;99.90
51841;DHT22;37888;53.246;6.658;2024-02-14T02:16:00;6.60;99.90
51841;DHT22;37888;53.246;6.658;2024-02-14T02:18:33;6.70;99.90
51841;DHT22;37888;53.246;6.658;2024-02-14T02:20:58;6.90;99.90
51841;DHT22;37888;53.246;6.658;2024-02-14T02:23:24;7.20;99.90
51841;DHT22;37888;53.246;6.658;2024-02-14T02:25:50;6.90;99.90
51841;DHT22;37888;53.246;6.658;2024-02-14T02:28:16;6.60;99.90
51841;DHT22;37888;53.246;6.658;2024-02-14T02:30:42;6.80;99.90
51841;DHT22;37888;53.246;6.658;2024-02-14T02:33:08;7.00;99.90
51841;DHT22;37888;53.246;6.658;2024-02-14T02:35:34;6.60;99.90
51841;DHT22;37888;53.246;6.658;2024-02-14T02:38:00;7.00;99.90
51841;DHT22;37888;53.246;6.658;2024-02-14T02:40:26;6.90;99.90
51841;DHT22;37888;53.246;6.658;2024-02-14T02:42:53;6.90;99.90
51841;DHT22;37888;53.246;6.658;2024-02-14T02:45:18;6.70;99.90
51841;DHT22;37888;53.246;6.658;2024-02-14T02:47:44;6.70;99.90
51841;DHT22;37888;53.246;6.658;2024-02-14T02:50:10;6.70;99.90
51841;DHT22;37888;53.246;6.658;2024-02-14T02:52:35;7.20;99.90
51841;DHT22;37888;53.246;6.658;2024-02-14T02:55:02;6.70;99.90
51841;DHT22;37888;53.246;6.658;2024-02-14T02:57:28;7.20;99.90
51841;DHT22;37888;53.246;6.658;2024-02-14T02:59:54;6.70;99.90
51841;DHT22;37888;53.246;6.658;2024-02-14T03:02:20;6.90;99.90
51841;DHT22;37888;53.246;6.658;2024-02-14T03:04:46;6.80;99.90
51841;DHT22;37888;53.246;6.658;2024-02-14T03:07:12;7.00;99.90
51841;DHT22;37888;53.246;6.658;2024-02-14T03:09:38;7.10;99.90
51841;DHT22;37888;53.246;6.658;2024-02-14T03:12:04;7.20;99.90
51841;DHT22;37888;53.246;6.658;2024-02-14T03:14:30;7.10;99.90
51841;DHT22;37888;53.246;6.658;2024-02-14T03:16:58;7.30;99.90
51841;DHT22;37888;53.246;6.658;2024-02-14T03:19:24;7.30;99.90
51841;DHT22;37888;53.246;6.658;2024-02-14T03:21:55;7.30;99.90
51841;DHT22;37888;53.246;6.658;2024-02-14T03:24:21;7.20;99.90
51841;DHT22;37888;53.246;6.658;2024-02-14T03:26:47;7.30;99.90
51841;DHT22;37888;53.246;6.658;2024-02-14T03:29:12;7.40;99.90
51841;DHT22;37888;53.246;6.658;2024-02-14T03:31:38;6.90;99.90
51841;DHT22;37888;53.246;6.658;2024-02-14T03:34:04;7.10;99.90
51841;DHT22;37888;53.246;6.658;2024-02-14T03:36:30;7.40;99.90
51841;DHT22;37888;53.246;6.658;2024-02-14T03:38:57;7.50;99.90
51841;DHT22;37888;53.246;6.658;2024-02-14T03:41:23;7.10;99.90
51841;DHT22;37888;53.246;6.658;2024-02-14T03:43:49;7.30;99.90
51841;DHT22;37888;53.246;6.658;2024-02-14T03:46:18;7.40;99.90
51841;DHT22;37888;53.246;6.658;2024-02-14T03:48:46;7.60;99.90
51841;DHT22;37888;53.246;6.658;2024-02-14T03:51:13;7.10;99.90
51841;DHT22;37888;53.246;6.658;2024-02-14T03:53:39;7.30;99.90
51841;DHT22;37888;53.246;6.658;2024-02-14T03:58:32;7.70;99.90
51841;DHT22;37888;53.246;6.658;2024-02-14T04:01:03;7.70;99.90
51841;DHT22;37888;53.246;6.658;2024-02-14T04:03:28;7.60;99.90
51841;DHT22;37888;53.246;6.658;2024-02-14T04:05:54;7.40;99.90
51841;DHT22;37888;53.246;6.658;2024-02-14T04:08:21;7.40;99.90
51841;DHT22;37888;53.246;6.658;2024-02-14T04:10:47;7.30;99.90
51841;DHT22;37888;53.246;6.658;2024-02-14T04:13:15;7.90;99.90
51841;DHT22;37888;53.246;6.658;2024-02-14T04:15:40;7.30;99.90
51841;DHT22;37888;53.246;6.658;2024-02-14T04:18:09;7.40;99.90
51841;DHT22;37888;53.246;6.658;2024-02-14T04:20:34;7.50;99.90
51841;DHT22;37888;53.246;6.658;2024-02-14T04:23:00;7.40;99.90
51841;DHT22;37888;53.246;6.658;2024-02-14T04:25:26;7.40;99.90
51841;DHT22;37888;53.246;6.658;2024-02-14T04:27:51;7.80;99.90
51841;DHT22;37888;53.246;6.658;2024-02-14T04:30:17;7.80;99.90
51841;DHT22;37888;53.246;6.658;2024-02-14T04:32:42;7.60;99.90
51841;DHT22;37888;53.246;6.658;2024-02-14T04:35:09;8.20;99.90
51841;DHT22;37888;53.246;6.658;2024-02-14T04:37:35;8.10;99.90
51841;DHT22;37888;53.246;6.658;2024-02-14T04:40:02;7.70;99.90
51841;DHT22;37888;53.246;6.658;2024-02-14T04:42:29;7.70;99.90
51841;DHT22;37888;53.246;6.658;2024-02-14T04:44:55;8.30;99.90
51841;DHT22;37888;53.246;6.658;2024-02-14T04:47:20;8.10;99.90
51841;DHT22;37888;53.246;6.658;2024-02-14T04:49:46;8.30;99.90
51841;DHT22;37888;53.246;6.658;2024-02-14T04:52:12;7.80;99.90
51841;DHT22;37888;53.246;6.658;2024-02-14T04:54:38;8.30;99.90
51841;DHT22;37888;53.246;6.658;2024-02-14T04:57:04;7.80;99.90
51841;DHT22;37888;53.246;6.658;2024-02-14T04:59:30;8.30;99.90
51841;DHT22;37888;53.246;6.658;2024-02-14T05:01:56;8.10;99.90
51841;DHT22;37888;53.246;6.658;2024-02-14T05:04:21;8.50;99.90
51841;DHT22;37888;53.246;6.658;2024-02-14T05:06:48;8.20;99.90
51841;DHT22;37888;53.246;6.658;2024-02-14T05:09:14;8.00;99.90
51841;DHT22;37888;53.246;6.658;2024-02-14T05:11:40;8.60;99.90
51841;DHT22;37888;53.246;6.658;2024-02-14T05:14:06;8.70;99.90
51841;DHT22;37888;53.246;6.658;2024-02-14T05:16:32;8.50;99.90
51841;DHT22;37888;53.246;6.658;2024-02-14T05:18:58;8.60;99.90
51841;DHT22;37888;53.246;6.658;2024-02-14T05:21:24;8.10;99.90
51841;DHT22;37888;53.246;6.658;2024-02-14T05:23:50;8.10;99.90
51841;DHT22;37888;53.246;6.658;2024-02-14T05:26:16;8.10;99.90
51841;DHT22;37888;53.246;6.658;2024-02-14T05:28:41;8.30;99.90
51841;DHT22;37888;53.246;6.658;2024-02-14T05:31:07;8.40;99.90
51841;DHT22;37888;53.246;6.658;2024-02-14T05:33:33;8.20;99.90
51841;DHT22;37888;53.246;6.658;2024-02-14T05:38:24;8.90;99.90
51841;DHT22;37888;53.246;6.658;2024-02-14T05:40:50;8.90;99.90
51841;DHT22;37888;53.246;6.658;2024-02-14T05:43:16;8.70;99.90
51841;DHT22;37888;53.246;6.658;2024-02-14T05:48:08;8.80;99.90
51841;DHT22;37888;53.246;6.658;2024-02-14T05:50:34;9.00;99.90
51841;DHT22;37888;53.246;6.658;2024-02-14T05:53:00;8.40;99.90
51841;DHT22;37888;53.246;6.658;2024-02-14T05:55:25;9.00;99.90
51841;DHT22;37888;53.246;6.658;2024-02-14T05:57:51;9.10;99.90
51841;DHT22;37888;53.246;6.658;2024-02-14T06:00:20;8.40;99.90
51841;DHT22;37888;53.246;6.658;2024-02-14T06:02:48;8.80;99.90
51841;DHT22;37888;53.246;6.658;2024-02-14T06:05:14;9.10;99.90
51841;DHT22;37888;53.246;6.658;2024-02-14T06:07:40;9.10;99.90
51841;DHT22;37888;53.246;6.658;2024-02-14T06:10:09;8.60;99.90
51841;DHT22;37888;53.246;6.658;2024-02-14T06:12:34;8.50;99.90
51841;DHT22;37888;53.246;6.658;2024-02-14T06:15:00;9.00;99.90
51841;DHT22;37888;53.246;6.658;2024-02-14T06:17:26;8.50;99.90
51841;DHT22;37888;53.246;6.658;2024-02-14T06:19:52;8.50;99.90
51841;DHT22;37888;53.246;6.658;2024-02-14T06:22:18;9.10;99.90
51841;DHT22;37888;53.246;6.658;2024-02-14T06:24:43;8.80;99.90
51841;DHT22;37888;53.246;6.658;2024-02-14T06:27:09;9.20;99.90
51841;DHT22;37888;53.246;6.658;2024-02-14T06:29:35;8.70;99.90
51841;DHT22;37888;53.246;6.658;2024-02-14T06:32:00;8.50;99.90
51841;DHT22;37888;53.246;6.658;2024-02-14T06:34:26;8.70;99.90
51841;DHT22;37888;53.246;6.658;2024-02-14T06:36:53;9.20;99.90
51841;DHT22;37888;53.246;6.658;2024-02-14T06:39:19;9.10;99.90
51841;DHT22;37888;53.246;6.658;2024-02-14T06:41:46;8.60;99.90
51841;DHT22;37888;53.246;6.658;2024-02-14T06:44:12;9.20;99.90
51841;DHT22;37888;53.246;6.658;2024-02-14T06:46:38;8.60;99.90
51841;DHT22;37888;53.246;6.658;2024-02-14T06:49:04;9.30;99.90
51841;DHT22;37888;53.246;6.658;2024-02-14T06:51:30;9.30;99.90
51841;DHT22;37888;53.246;6.658;2024-02-14T06:53:56;9.40;99.90
51841;DHT22;37888;53.246;6.658;2024-02-14T06:56:21;9.00;99.90
51841;DHT22;37888;53.246;6.658;2024-02-14T06:58:47;9.30;99.90
51841;DHT22;37888;53.246;6.658;2024-02-14T07:01:17;9.30;99.90
51841;DHT22;37888;53.246;6.658;2024-02-14T07:03:47;8.80;99.90
51841;DHT22;37888;53.246;6.658;2024-02-14T07:06:13;9.50;99.90
51841;DHT22;37888;53.246;6.658;2024-02-14T07:08:41;9.10;99.90
51841;DHT22;37888;53.246;6.658;2024-02-14T07:11:07;9.40;99.90
51841;DHT22;37888;53.246;6.658;2024-02-14T07:13:33;9.10;99.90
51841;DHT22;37888;53.246;6.658;2024-02-14T07:15:58;9.60;99.90
51841;DHT22;37888;53.246;6.658;2024-02-14T07:18:24;9.50;99.90
51841;DHT22;37888;53.246;6.658;2024-02-14T07:20:49;9.00;99.90
51841;DHT22;37888;53.246;6.658;2024-02-14T07:23:16;9.00;99.90
51841;DHT22;37888;53.246;6.658;2024-02-14T07:25:41;9.10;99.90
51841;DHT22;37888;53.246;6.658;2024-02-14T07:28:07;9.70;99.90
51841;DHT22;37888;53.246;6.658;2024-02-14T07:30:33;9.60;99.90
51841;DHT22;37888;53.246;6.658;2024-02-14T07:32:58;9.10;99.90
51841;DHT22;37888;53.246;6.658;2024-02-14T07:35:24;9.70;99.90
51841;DHT22;37888;53.246;6.658;2024-02-14T07:37:49;9.10;99.90
51841;DHT22;37888;53.246;6.658;2024-02-14T07:40:15;9.40;99.90
51841;DHT22;37888;53.246;6.658;2024-02-14T07:42:40;9.20;99.90
51841;DHT22;37888;53.246;6.658;2024-02-14T07:45:06;9.40;99.90
51841;DHT22;37888;53.246;6.658;2024-02-14T07:47:32;9.30;99.90
51841;DHT22;37888;53.246;6.658;2024-02-14T07:49:57;9.50;99.90
51841;DHT22;37888;53.246;6.658;2024-02-14T07:52:23;9.20;99.90
51841;DHT22;37888;53.246;6.658;2024-02-14T07:54:52;9.30;99.90
51841;DHT22;37888;53.246;6.658;2024-02-14T07:57:19;9.60;99.90
51841;DHT22;37888;53.246;6.658;2024-02-14T07:59:44;9.30;99.90
51841;DHT22;37888;53.246;6.658;2024-02-14T08:02:10;9.60;99.90
51841;DHT22;37888;53.246;6.658;2024-02-14T08:04:36;9.90;99.90
51841;DHT22;37888;53.246;6.658;2024-02-14T08:07:01;9.30;99.90
51841;DHT22;37888;53.246;6.658;2024-02-14T08:09:29;9.20;99.90
51841;DHT22;37888;53.246;6.658;2024-02-14T08:11:54;9.30;99.90
51841;DHT22;37888;53.246;6.658;2024-02-14T08:14:20;9.90;99.90
51841;DHT22;37888;53.246;6.658;2024-02-14T08:16:45;9.30;99.90
51841;DHT22;37888;53.246;6.658;2024-02-14T08:19:11;10.00;99.90
51841;DHT22;37888;53.246;6.658;2024-02-14T08:21:37;9.30;99.90
51841;DHT22;37888;53.246;6.658;2024-02-14T08:24:04;9.60;99.90
51841;DHT22;37888;53.246;6.658;2024-02-14T08:26:31;9.30;99.90
51841;DHT22;37888;53.246;6.658;2024-02-14T08:28:57;9.40;99.90
51841;DHT22;37888;53.246;6.658;2024-02-14T08:31:23;9.90;99.90
51841;DHT22;37888;53.246;6.658;2024-02-14T08:33:49;10.10;99.90
51841;DHT22;37888;53.246;6.658;2024-02-14T08:36:14;9.40;99.90
51841;DHT22;37888;53.246;6.658;2024-02-14T08:38:42;10.20;99.90
51841;DHT22;37888;53.246;6.658;2024-02-14T08:41:07;9.90;99.90
51841;DHT22;37888;53.246;6.658;2024-02-14T08:43:33;9.60;99.90
51841;DHT22;37888;53.246;6.658;2024-02-14T08:45:59;10.20;99.90
51841;DHT22;37888;53.246;6.658;2024-02-14T08:48:25;9.50;99.90
51841;DHT22;37888;53.246;6.658;2024-02-14T08:50:52;9.60;99.90
51841;DHT22;37888;53.246;6.658;2024-02-14T08:53:18;9.50;99.90
51841;DHT22;37888;53.246;6.658;2024-02-14T08:55:44;10.00;99.90
51841;DHT22;37888;53.246;6.658;2024-02-14T08:58:09;10.30;99.90
51841;DHT22;37888;53.246;6.658;2024-02-14T09:00:35;9.80;99.90
51841;DHT22;37888;53.246;6.658;2024-02-14T09:03:02;9.60;99.90
51841;DHT22;37888;53.246;6.658;2024-02-14T09:05:28;9.90;99.90
51841;DHT22;37888;53.246;6.658;2024-02-14T09:07:53;10.40;99.90
51841;DHT22;37888;53.246;6.658;2024-02-14T09:10:19;10.20;99.90
51841;DHT22;37888;53.246;6.658;2024-02-14T09:12:46;9.80;99.90
51841;DHT22;37888;53.246;6.658;2024-02-14T09:15:11;10.30;99.90
51841;DHT22;37888;53.246;6.658;2024-02-14T09:17:37;10.10;99.90
51841;DHT22;37888;53.246;6.658;2024-02-14T09:20:04;10.10;99.90
51841;DHT22;37888;53.246;6.658;2024-02-14T09:22:31;10.10;99.90
51841;DHT22;37888;53.246;6.658;2024-02-14T09:24:58;10.20;99.90
51841;DHT22;37888;53.246;6.658;2024-02-14T09:27:24;9.90;99.90
51841;DHT22;37888;53.246;6.658;2024-02-14T09:29:50;9.90;99.90
51841;DHT22;37888;53.246;6.658;2024-02-14T09:32:16;10.10;99.90
51841;DHT22;37888;53.246;6.658;2024-02-14T09:34:41;10.00;99.90
51841;DHT22;37888;53.246;6.658;2024-02-14T09:37:07;10.00;99.90
51841;DHT22;37888;53.246;6.658;2024-02-14T09:39:33;10.70;99.90
51841;DHT22;37888;53.246;6.658;2024-02-14T09:42:01;10.80;99.90
51841;DHT22;37888;53.246;6.658;2024-02-14T09:49:25;10.60;99.90
51841;DHT22;37888;53.246;6.658;2024-02-14T09:51:50;10.80;99.90
51841;DHT22;37888;53.246;6.658;2024-02-14T09:54:17;10.80;99.90
51841;DHT22;37888;53.246;6.658;2024-02-14T09:56:50;10.90;99.90
51841;DHT22;37888;53.246;6.658;2024-02-14T09:59:19;10.40;99.90
51841;DHT22;37888;53.246;6.658;2024-02-14T10:01:44;11.00;99.90
51841;DHT22;37888;53.246;6.658;2024-02-14T10:04:11;10.20;99.90
51841;DHT22;37888;53.246;6.658;2024-02-14T10:06:37;10.60;99.90
51841;DHT22;37888;53.246;6.658;2024-02-14T10:09:02;10.80;99.90
51841;DHT22;37888;53.246;6.658;2024-02-14T10:11:30;10.40;99.90
51841;DHT22;37888;53.246;6.658;2024-02-14T10:13:57;10.80;99.90
51841;DHT22;37888;53.246;6.658;2024-02-14T10:16:28;10.80;99.90
51841;DHT22;37888;53.246;6.658;2024-02-14T10:18:53;10.50;99.90
51841;DHT22;37888;53.246;6.658;2024-02-14T10:21:20;10.80;99.90
51841;DHT22;37888;53.246;6.658;2024-02-14T10:23:47;10.20;99.90
51841;DHT22;37888;53.246;6.658;2024-02-14T10:26:15;10.40;99.90
51841;DHT22;37888;53.246;6.658;2024-02-14T10:28:42;10.90;99.90
51841;DHT22;37888;53.246;6.658;2024-02-14T10:31:07;10.20;99.90
51841;DHT22;37888;53.246;6.658;2024-02-14T10:33:36;10.50;99.90
51841;DHT22;37888;53.246;6.658;2024-02-14T10:36:02;10.90;99.90
51841;DHT22;37888;53.246;6.658;2024-02-14T10:38:32;10.30;99.90
51841;DHT22;37888;53.246;6.658;2024-02-14T10:40:59;11.00;99.90
51841;DHT22;37888;53.246;6.658;2024-02-14T10:43:26;10.30;99.90
51841;DHT22;37888;53.246;6.658;2024-02-14T10:45:53;10.30;99.90
51841;DHT22;37888;53.246;6.658;2024-02-14T10:48:19;10.40;99.90
51841;DHT22;37888;53.246;6.658;2024-02-14T10:50:47;10.40;99.90
51841;DHT22;37888;53.246;6.658;2024-02-14T10:53:14;10.50;99.90
51841;DHT22;37888;53.246;6.658;2024-02-14T10:55:41;11.00;99.90
51841;DHT22;37888;53.246;6.658;2024-02-14T10:58:10;10.70;99.90
51841;DHT22;37888;53.246;6.658;2024-02-14T11:00:37;10.60;99.90
51841;DHT22;37888;53.246;6.658;2024-02-14T11:03:03;11.00;99.90
51841;DHT22;37888;53.246;6.658;2024-02-14T11:05:29;10.50;99.90
51841;DHT22;37888;53.246;6.658;2024-02-14T11:07:55;11.10;99.90
51841;DHT22;37888;53.246;6.658;2024-02-14T11:10:22;10.60;99.90
51841;DHT22;37888;53.246;6.658;2024-02-14T11:12:48;10.40;99.90
51841;DHT22;37888;53.246;6.658;2024-02-14T11:15:19;10.50;99.90
51841;DHT22;37888;53.246;6.658;2024-02-14T11:17:45;10.70;99.90
51841;DHT22;37888;53.246;6.658;2024-02-14T11:20:15;11.20;99.90
51841;DHT22;37888;53.246;6.658;2024-02-14T11:22:49;10.50;99.90
51841;DHT22;37888;53.246;6.658;2024-02-14T11:25:15;11.10;99.90
51841;DHT22;37888;53.246;6.658;2024-02-14T11:27:47;11.30;99.90
51841;DHT22;37888;53.246;6.658;2024-02-14T11:30:12;10.80;99.90
51841;DHT22;37888;53.246;6.658;2024-02-14T11:32:42;11.10;99.90
51841;DHT22;37888;53.246;6.658;2024-02-14T11:35:11;11.30;99.90
51841;DHT22;37888;53.246;6.658;2024-02-14T11:37:36;11.20;99.90
51841;DHT22;37888;53.246;6.658;2024-02-14T11:40:02;11.30;99.90
51841;DHT22;37888;53.246;6.658;2024-02-14T11:42:29;10.60;99.90
51841;DHT22;37888;53.246;6.658;2024-02-14T11:44:54;10.80;99.90
51841;DHT22;37888;53.246;6.658;2024-02-14T11:47:23;11.20;99.90
51841;DHT22;37888;53.246;6.658;2024-02-14T11:49:48;10.60;99.90
51841;DHT22;37888;53.246;6.658;2024-02-14T11:52:14;11.10;99.90
51841;DHT22;37888;53.246;6.658;2024-02-14T11:54:40;11.20;99.90
51841;DHT22;37888;53.246;6.658;2024-02-14T11:57:05;11.10;99.90
51841;DHT22;37888;53.246;6.658;2024-02-14T11:59:34;11.30;99.90
51841;DHT22;37888;53.246;6.658;2024-02-14T12:01:59;11.30;99.90
51841;DHT22;37888;53.246;6.658;2024-02-14T12:04:25;11.30;99.90
51841;DHT22;37888;53.246;6.658;2024-02-14T12:06:50;10.70;99.90
51841;DHT22;37888;53.246;6.658;2024-02-14T12:09:16;11.10;99.90
51841;DHT22;37888;53.246;6.658;2024-02-14T12:14:09;10.90;99.90
51841;DHT22;37888;53.246;6.658;2024-02-14T12:16:35;11.00;99.90
51841;DHT22;37888;53.246;6.658;2024-02-14T12:19:06;11.10;99.90
51841;DHT22;37888;53.246;6.658;2024-02-14T12:21:34;11.50;99.90
51841;DHT22;37888;53.246;6.658;2024-02-14T12:24:00;11.00;99.90
51841;DHT22;37888;53.246;6.658;2024-02-14T12:26:26;11.70;99.90
51841;DHT22;37888;53.246;6.658;2024-02-14T12:28:51;11.60;99.90
51841;DHT22;37888;53.246;6.658;2024-02-14T12:31:22;11.80;99.90
51841;DHT22;37888;53.246;6.658;2024-02-14T12:33:47;11.10;99.90
51841;DHT22;37888;53.246;6.658;2024-02-14T12:36:13;11.80;99.90
51841;DHT22;37888;53.246;6.658;2024-02-14T12:38:38;11.20;99.90
51841;DHT22;37888;53.246;6.658;2024-02-14T12:41:04;11.10;99.90
51841;DHT22;37888;53.246;6.658;2024-02-14T12:43:30;11.60;99.90
51841;DHT22;37888;53.246;6.658;2024-02-14T12:45:55;11.60;99.90
51841;DHT22;37888;53.246;6.658;2024-02-14T12:48:24;11.70;99.90
51841;DHT22;37888;53.246;6.658;2024-02-14T12:50:53;11.70;99.90
51841;DHT22;37888;53.246;6.658;2024-02-14T12:53:21;11.30;99.90
51841;DHT22;37888;53.246;6.658;2024-02-14T12:55:47;11.20;99.90
51841;DHT22;37888;53.246;6.658;2024-02-14T12:58:13;11.20;99.90
51841;DHT22;37888;53.246;6.658;2024-02-14T13:00:39;11.20;99.90
51841;DHT22;37888;53.246;6.658;2024-02-14T13:03:05;11.80;99.90
51841;DHT22;37888;53.246;6.658;2024-02-14T13:05:31;11.30;99.90
51841;DHT22;37888;53.246;6.658;2024-02-14T13:07:56;11.70;99.90
51841;DHT22;37888;53.246;6.658;2024-02-14T13:10:22;11.30;99.90
51841;DHT22;37888;53.246;6.658;2024-02-14T13:12:49;11.70;99.90
51841;DHT22;37888;53.246;6.658;2024-02-14T13:15:16;11.10;99.90
51841;DHT22;37888;53.246;6.658;2024-02-14T13:17:42;11.60;99.90
51841;DHT22;37888;53.246;6.658;2024-02-14T13:20:08;12.30;99.90
51841;DHT22;37888;53.246;6.658;2024-02-14T13:22:33;11.60;99.90
51841;DHT22;37888;53.246;6.658;2024-02-14T13:24:59;11.00;99.90
51841;DHT22;37888;53.246;6.658;2024-02-14T13:27:31;11.00;99.90
51841;DHT22;37888;53.246;6.658;2024-02-14T13:29:56;11.60;99.90
51841;DHT22;37888;53.246;6.658;2024-02-14T13:32:22;11.60;99.90
51841;DHT22;37888;53.246;6.658;2024-02-14T13:34:49;11.60;99.90
51841;DHT22;37888;53.246;6.658;2024-02-14T13:37:14;11.30;99.90
51841;DHT22;37888;53.246;6.658;2024-02-14T13:39:41;11.50;99.90
51841;DHT22;37888;53.246;6.658;2024-02-14T13:42:06;11.20;99.90
51841;DHT22;37888;53.246;6.658;2024-02-14T13:44:33;11.10;99.90
51841;DHT22;37888;53.246;6.658;2024-02-14T13:46:59;11.60;99.90
51841;DHT22;37888;53.246;6.658;2024-02-14T13:49:24;11.50;99.90
51841;DHT22;37888;53.246;6.658;2024-02-14T13:51:51;11.60;99.90
51841;DHT22;37888;53.246;6.658;2024-02-14T13:54:20;11.30;99.90
51841;DHT22;37888;53.246;6.658;2024-02-14T13:56:46;10.90;99.90
51841;DHT22;37888;53.246;6.658;2024-02-14T13:59:14;10.90;99.90
51841;DHT22;37888;53.246;6.658;2024-02-14T14:01:39;10.20;99.90
51841;DHT22;37888;53.246;6.658;2024-02-14T14:04:05;10.90;99.90
51841;DHT22;37888;53.246;6.658;2024-02-14T14:06:31;11.00;99.90
51841;DHT22;37888;53.246;6.658;2024-02-14T14:08:57;11.50;99.90
51841;DHT22;37888;53.246;6.658;2024-02-14T14:11:22;11.50;99.90
51841;DHT22;37888;53.246;6.658;2024-02-14T14:13:48;11.10;99.90
51841;DHT22;37888;53.246;6.658;2024-02-14T14:16:14;11.40;99.90
51841;DHT22;37888;53.246;6.658;2024-02-14T14:18:40;11.60;99.90
51841;DHT22;37888;53.246;6.658;2024-02-14T14:21:05;10.90;99.90
51841;DHT22;37888;53.246;6.658;2024-02-14T14:23:31;11.30;99.90
51841;DHT22;37888;53.246;6.658;2024-02-14T14:25:58;11.00;99.90
51841;DHT22;37888;53.246;6.658;2024-02-14T14:28:24;10.90;99.90
51841;DHT22;37888;53.246;6.658;2024-02-14T14:30:53;11.00;99.90
51841;DHT22;37888;53.246;6.658;2024-02-14T14:33:19;11.60;99.90
51841;DHT22;37888;53.246;6.658;2024-02-14T14:35:45;11.60;99.90
51841;DHT22;37888;53.246;6.658;2024-02-14T14:38:11;11.60;99.90
51841;DHT22;37888;53.246;6.658;2024-02-14T14:40:39;11.00;99.90
51841;DHT22;37888;53.246;6.658;2024-02-14T14:43:05;11.60;99.90
51841;DHT22;37888;53.246;6.658;2024-02-14T14:45:30;11.60;99.90
51841;DHT22;37888;53.246;6.658;2024-02-14T14:47:56;11.00;99.90
51841;DHT22;37888;53.246;6.658;2024-02-14T14:50:22;11.10;99.90
51841;DHT22;37888;53.246;6.658;2024-02-14T14:52:47;11.00;99.90
51841;DHT22;37888;53.246;6.658;2024-02-14T14:55:13;11.60;99.90
51841;DHT22;37888;53.246;6.658;2024-02-14T14:57:39;11.50;99.90
51841;DHT22;37888;53.246;6.658;2024-02-14T15:00:08;11.50;99.90
51841;DHT22;37888;53.246;6.658;2024-02-14T15:02:38;11.50;99.90
51841;DHT22;37888;53.246;6.658;2024-02-14T15:05:05;11.30;99.90
51841;DHT22;37888;53.246;6.658;2024-02-14T15:07:31;11.60;99.90
51841;DHT22;37888;53.246;6.658;2024-02-14T15:09:58;11.60;99.90
51841;DHT22;37888;53.246;6.658;2024-02-14T15:12:24;11.20;99.90
51841;DHT22;37888;53.246;6.658;2024-02-14T15:14:52;11.00;99.90
51841;DHT22;37888;53.246;6.658;2024-02-14T15:17:18;11.60;99.90
51841;DHT22;37888;53.246;6.658;2024-02-14T15:19:45;11.60;99.90
51841;DHT22;37888;53.246;6.658;2024-02-14T15:22:11;11.00;99.90
51841;DHT22;37888;53.246;6.658;2024-02-14T15:24:37;11.70;99.90
51841;DHT22;37888;53.246;6.658;2024-02-14T15:27:05;11.30;99.90
51841;DHT22;37888;53.246;6.658;2024-02-14T15:29:31;11.40;99.90
51841;DHT22;37888;53.246;6.658;2024-02-14T15:32:16;11.60;99.90
51841;DHT22;37888;53.246;6.658;2024-02-14T15:35:00;11.00;99.90
51841;DHT22;37888;53.246;6.658;2024-02-14T15:37:26;11.40;99.90
51841;DHT22;37888;53.246;6.658;2024-02-14T15:39:51;11.00;99.90
51841;DHT22;37888;53.246;6.658;2024-02-14T15:42:17;11.70;99.90
51841;DHT22;37888;53.246;6.658;2024-02-14T15:47:10;11.70;99.90
51841;DHT22;37888;53.246;6.658;2024-02-14T15:49:36;11.00;99.90
51841;DHT22;37888;53.246;6.658;2024-02-14T15:52:02;11.00;99.90